Tiempo atmosférico en la estación meteorológica de Alcuescar, Cáceres (460 m.)



Fecha
DESCASC
Temp. máxima en grados centígrados (hora)
DESCASC
Temp. mínima en grados centígrados (hora)
DESCASC
Temp. media en grados centígrados
DESCASC
Racha de viento máxima en m/sg (hora)
DESCASC
Velocidad máxima media en intervalos de 10 minutos(hora)
DESCASC
Precipitaciones diarias en mm
DESCASC
Precipitaciones de 00:00 a 06:00 en mm
DESCASC
Precipitaciones de 06:00 a 12:00 en mm
DESCASC
Precipitaciones de 12:00 a 18:00 en mm
DESCASC
Precipitaciones de 18:00 a 24:00 en mm
DESCASC
24-08-2019 37.2 (16:20) 22 (00:00) 29.6 8.89 (09:40) 6.67 (06:50) 0 0 0 0 0
16-08-2019 37.1 (17:20) 19.9 (00:00) 28.5 9.17 (15:00) 4.72 (19:30) 0 0 0 0 0
15-08-2019 37 (17:10) 19 (00:00) 28 8.61 (15:50) 5 (17:20) 0 0 0 0 0
23-08-2019 36.9 (16:30) 22 (00:00) 29.5 7.5 (15:10) 5.28 (03:40) 0 0 0 0 0
17-08-2019 36.8 (17:30) 19.4 (00:00) 28.1 8.89 (16:40) 5.28 (16:50) 0 0 0 0 0
22-08-2019 35.7 (16:30) 21.6 (00:00) 28.7 11.11 (04:50) 6.94 (10:40) 0 0 0 0 0
14-08-2019 35.1 (17:50) 16.4 (00:00) 25.7 7.78 (12:50) 4.17 (18:40) 0 0 0 0 0
05-08-2019 35 (18:00) 17.4 (00:00) 26.2 7.78 (15:20) 4.72 (16:00) 0 0 0 0 0
31-07-2019 34.8 (18:30) 14.4 (00:00) 24.6 8.61 (15:30) 5.83 (11:10) 0 0 0 0 0
21-08-2019 34.8 (17:50) 20.1 (00:00) 27.4 20.83 (19:10) 6.67 (09:50) 0 0 0 0 0
04-08-2019 34.7 (18:50) 16.5 (00:00) 25.6 9.17 (17:30) 4.72 (19:20) 0 0 0 0 0
02-08-2019 34.7 (17:40) 14.5 (00:00) 24.6 6.39 (14:50) 3.33 (18:50) 0 0 0 0 0
03-08-2019 34.6 (17:50) 19.2 (00:00) 26.9 10 (15:00) 4.44 (18:10) 0 0 0 0 0
20-08-2019 34.2 (17:50) 14.5 (00:00) 24.4 6.94 (16:30) 3.33 (05:00) 0 0 0 0 0
18-08-2019 34.1 (18:20) 16.6 (00:00) 25.3 13.33 (17:00) 5.56 (17:30) 0 0 0 0 0
01-08-2019 33.9 (18:00) 17.9 (00:00) 25.9 10.83 (15:00) 5 (17:50) 0 0 0 0 0
06-08-2019 33.6 (17:00) 15.8 (00:00) 24.7 9.72 (16:50) 5.56 (15:40) 0 0 0 0 0
13-08-2019 33.4 (17:20) 13.8 (00:00) 23.6 7.22 (15:10) 4.17 (15:10) 0 0 0 0 0
08-08-2019 33.1 (17:40) 18.4 (00:00) 25.7 11.94 (19:30) 6.11 (17:00) 0 0 0 0 0
19-08-2019 32.4 (17:40) 14.6 (00:00) 23.5 9.17 (22:30) 5.56 (22:20) 0 0 0 0 0
29-07-2019 31.8 (16:40) 13.9 (00:00) 22.8 10.28 (23:00) 6.11 (21:10) 0 0 0 0 0
28-07-2019 31.7 (18:20) 15.4 (00:00) 23.6 7.5 (20:30) 4.17 (20:40) 0 0 0 0 0
30-07-2019 31.7 (17:40) 12.5 (00:00) 22.1 8.89 (10:30) 5.56 (09:40) 0 0 0 0 0
10-08-2019 31.4 (18:00) 13.9 (00:00) 22.6 7.5 (18:10) 4.17 (23:30) 0 0 0 0 0
12-08-2019 29.6 (17:30) 12 (00:00) 20.8 8.61 (00:10) 5.56 (00:10) 0 0 0 0 0
26-07-2019 29.5 (17:50) 14.8 (00:00) 22.2 12.5 (12:40) 5.83 (15:50) 0 0 0 0 0
07-08-2019 28.6 (18:50) 17.6 (00:00) 23.1 7.22 (13:20) 4.44 (13:20) 0 0 0 0 0
11-08-2019 27.7 (18:40) 14.5 (00:00) 21.1 11.39 (23:50) 6.67 (23:40) 0 0 0 0 0
09-08-2019 27.7 (15:00) 19.6 (00:00) 23.7 11.67 (15:40) 6.94 (15:50) 0 0 0 0 0
27-07-2019 26.7 (18:40) 14.7 (00:00) 20.7 11.94 (17:20) 6.11 (14:50) 0 0 0 0 0

Gráficas

Temp. máximas Temp. mínimas Temp. medias Precipitaciones Rachas de viento máximas Velocidades máximas media en intervalos de 10 minutos

Datos horarios

Fecha y hora oficial Temperatura (ºC) Velocidad del viento (km/h) Dirección del viento Racha (km/h) Dirección de racha Precipitación (mm) Presión (hPa) Tendencia (hPa) Humedad (%)
2019-08-24 23:00:00 29.8 4 Nordeste 7 Este 0 -- -- 15
2019-08-24 22:00:00 30.2 5 Sudeste 7 Sudeste 0 -- -- 14
2019-08-24 21:00:00 32.8 6 Sudeste 16 Sudeste 0 -- -- 13
2019-08-24 20:00:00 35.4 9 Sudeste 18 Sudeste 0 -- -- 10
2019-08-24 19:00:00 36.3 12 Sur 24 Sur 0 -- -- 9
2019-08-24 18:00:00 36.8 10 Sur 23 Sudeste 0 -- -- 9
2019-08-24 17:00:00 37 9 Sudeste 27 Sudeste 0 -- -- 9
2019-08-24 16:00:00 36.5 14 Sudeste 30 Sudeste 0 -- -- 10
2019-08-24 15:00:00 36 14 Sudeste 27 Sudeste 0 -- -- 13
2019-08-24 14:00:00 34.2 14 Sudeste 25 Sudeste 0 -- -- 18
2019-08-24 13:00:00 33.1 15 Sudeste 27 Sudeste 0 -- -- 21
2019-08-24 12:00:00 30.9 17 Sudeste 27 Sudeste 0 -- -- 23
2019-08-24 11:00:00 28.4 19 Sudeste 28 Sudeste 0 -- -- 26
2019-08-24 10:00:00 26.3 19 Sudeste 32 Sudeste 0 -- -- 28
2019-08-24 09:00:00 23.9 15 Sudeste 22 Este 0 -- -- 26
2019-08-24 08:00:00 22 18 Sudeste 28 Sudeste 0 -- -- 30
2019-08-24 07:00:00 23.3 24 Sudeste 31 Sudeste 0 -- -- 26
2019-08-24 06:00:00 24.2 20 Sudeste 28 Sudeste 0 -- -- 20
2019-08-24 05:00:00 25.7 17 Sudeste 26 Sudeste 0 -- -- 17
2019-08-24 04:00:00 26.8 17 Sudeste 22 Sudeste 0 -- -- 16
2019-08-24 03:00:00 27.8 16 Sudeste 24 Sudeste 0 -- -- 16
2019-08-24 02:00:00 27.3 7 Sudeste 13 Nordeste 0 -- -- 19
2019-08-24 01:00:00 27.7 9 Nordeste 12 Nordeste 0 -- -- 18
2019-08-24 00:00:00 28.4 6 Norte 10 Nordeste 0 -- -- 18
2019-08-23 23:00:00 29.3 3 Nordeste 8 Nordeste 0 -- -- 23
2019-08-23 22:00:00 30.1 4 Sudeste 12 Este 0 -- -- 22
2019-08-23 21:00:00 33 6 Nordeste 13 Nordeste 0 -- -- 15
2019-08-23 20:00:00 35.3 5 Este 16 Nordeste 0 -- -- 14
2019-08-23 19:00:00 36 12 Sudeste 23 Este 0 -- -- 16
2019-08-23 18:00:00 35.9 6 Norte 17 Norte 0 -- -- 15
2019-08-23 17:00:00 36.3 7 Sudoeste 27 Este 0 -- -- 16
2019-08-23 16:00:00 36 14 Sudeste 27 Sudeste 0 -- -- 16
2019-08-23 15:00:00 34.4 8 Sur 26 Sudeste 0 -- -- 22
2019-08-23 14:00:00 33.4 8 Sur 23 Sudeste 0 -- -- 25
2019-08-23 13:00:00 31.6 15 Sudeste 24 Sudeste 0 -- -- 29
2019-08-23 12:00:00 30.7 13 Sudeste 25 Sudeste 0 -- -- 31
2019-08-23 11:00:00 29 15 Sudeste 25 Sudeste 0 -- -- 32
2019-08-23 10:00:00 27 15 Sudeste 23 Sudeste 0 -- -- 34
2019-08-23 09:00:00 25.1 9 Sudeste 12 Sudeste 0 -- -- 41
2019-08-23 08:00:00 22.1 9 Sudeste 13 Sudeste 0 -- -- 34
2019-08-23 07:00:00 22.1 9 Sudeste 15 Sudeste 0 -- -- 35
2019-08-23 06:00:00 22.6 11 Sudeste 14 Sudeste 0 -- -- 29
2019-08-23 05:00:00 23.4 12 Sudeste 26 Sudeste 0 -- -- 27
2019-08-23 04:00:00 24.7 17 Sudeste 26 Sudeste 0 -- -- 23
2019-08-23 03:00:00 25.9 13 Sudeste 23 Sudeste 0 -- -- 21
2019-08-23 02:00:00 26.9 12 Sudeste 21 Sudeste 0 -- -- 21
2019-08-23 01:00:00 27.5 6 Este 12 Este 0 -- -- 21
2019-08-23 00:00:00 27.4 6 Nordeste 15 Norte 0 -- -- 22
2019-08-22 23:00:00 28.1 6 Nordeste 9 Nordeste 0 -- -- 21
2019-08-22 22:00:00 29.9 5 Este 7 Nordeste 0 -- -- 18
2019-08-22 21:00:00 32.3 5 Sudeste 22 Sudeste 0 -- -- 16
2019-08-22 20:00:00 34.1 12 Sudeste 25 Sudeste 0 -- -- 14
2019-08-22 19:00:00 35.3 12 Sur 32 Sudeste 0 -- -- 14
2019-08-22 18:00:00 35.3 16 Sudeste 33 Sudeste 0 -- -- 14
2019-08-22 17:00:00 35.3 17 Sudeste 35 Sudeste 0 -- -- 16
2019-08-22 16:00:00 35.4 15 Sudeste 32 Sudeste 0 -- -- 17
2019-08-22 15:00:00 33.9 19 Sudeste 36 Sudeste 0 -- -- 20
2019-08-22 14:00:00 32.6 16 Sudeste 37 Sudeste 0 -- -- 25
2019-08-22 13:00:00 30.9 17 Este 32 Sudeste 0 -- -- 32
2019-08-22 12:00:00 29.9 18 Sudeste 31 Sudeste 0 -- -- 35
2019-08-22 11:00:00 27.5 23 Sudeste 35 Sudeste 0 -- -- 41
2019-08-22 10:00:00 25.8 23 Sudeste 36 Este 0 -- -- 45
2019-08-22 09:00:00 24.2 12 Sudeste 23 Sudeste 0 -- -- 51
2019-08-22 08:00:00 21.6 15 Sudeste 23 Sudeste 0 -- -- 62
2019-08-22 07:00:00 22 14 Sudeste 23 Sudeste 0 -- -- 62
2019-08-22 06:00:00 23.1 15 Sudeste 29 Sudeste 0 -- -- 57
2019-08-22 05:00:00 24.1 23 Sudeste 40 Este 0 -- -- 52
2019-08-22 04:00:00 25.4 21 Sudeste 32 Sudeste 0 -- -- 43
2019-08-22 03:00:00 25.6 16 Sudeste 29 Sudeste 0 -- -- 37
2019-08-22 02:00:00 27.1 10 Este 15 Este 0 -- -- 21
2019-08-22 01:00:00 25.9 2 Sudeste 9 Nordeste 0 -- -- 24
2019-08-22 00:00:00 26.4 7 Este 12 Sudeste 0 -- -- 23
2019-08-21 23:00:00 27.4 9 Sudeste 12 Sudeste 0 -- -- 21
2019-08-21 22:00:00 29.4 3 Noroeste 10 Noroeste 0 -- -- 18
2019-08-21 21:00:00 32.1 3 Sur 10 Sudoeste 0 -- -- 15
2019-08-21 20:00:00 33.9 4 Sur 75 Nordeste 0 -- -- 13
2019-08-21 19:00:00 34.4 7 Nordeste 18 Oeste 0 -- -- 14
2019-08-21 18:00:00 34.4 10 Sudoeste 22 Oeste 0 -- -- 12
2019-08-21 17:00:00 34.2 10 Nordeste 23 Sudoeste 0 -- -- 15
2019-08-21 16:00:00 33.7 9 Este 15 Noroeste 0 -- -- 16
2019-08-21 15:00:00 32.4 7 Norte 16 Sudoeste 0 -- -- 19
2019-08-21 14:00:00 31.4 5 Noroeste 14 Noroeste 0 -- -- 22
2019-08-21 13:00:00 30.7 8 Sudeste 22 Sudeste 0 -- -- 27
2019-08-21 12:00:00 28.6 14 Sudeste 26 Sudeste 0 -- -- 36
2019-08-21 11:00:00 26.3 17 Sudeste 32 Sudeste 0 -- -- 44
2019-08-21 10:00:00 24.5 22 Sudeste 36 Sudeste 0 -- -- 56
2019-08-21 09:00:00 23.3 23 Sudeste 37 Sudeste 0 -- -- 61
2019-08-21 08:00:00 20.9 21 Sudeste 27 Sudeste 0 -- -- 67
2019-08-21 07:00:00 20.6 20 Sudeste 27 Sudeste 0 -- -- 56
2019-08-21 06:00:00 21.3 16 Sudeste 22 Sudeste 0 -- -- 45
2019-08-21 05:00:00 20.1 3 Sudoeste 9 Oeste 0 -- -- 35
2019-08-21 04:00:00 20.7 4 Oeste 9 Oeste 0 -- -- 33
2019-08-21 03:00:00 22.3 3 Noroeste 9 Norte 0 -- -- 30
2019-08-21 02:00:00 23.1 5 Oeste 8 Oeste 0 -- -- 29
2019-08-21 01:00:00 23.8 6 Noroeste 12 Oeste 0 -- -- 27
2019-08-21 00:00:00 25.4 7 Noroeste 10 Norte 0 -- -- 23
2019-08-20 23:00:00 26.3 4 Oeste 12 Oeste 0 -- -- 26
2019-08-20 22:00:00 27.5 8 Oeste 12 Sudoeste 0 -- -- 19
2019-08-20 21:00:00 31 7 Noroeste 16 Noroeste 0 -- -- 15
2019-08-20 20:00:00 32.9 6 Oeste 21 Noroeste 0 -- -- 14
2019-08-20 19:00:00 33.6 6 Oeste 21 Sur 0 -- -- 13
2019-08-20 18:00:00 33.9 10 Sur 20 Sur 0 -- -- 13
2019-08-20 17:00:00 33.1 10 Oeste 25 Sudoeste 0 -- -- 15
2019-08-20 16:00:00 32.8 6 Sur 22 Este 0 -- -- 18
2019-08-20 15:00:00 31.5 6 Sudoeste 18 Noroeste 0 -- -- 19
2019-08-20 14:00:00 29.9 5 Nordeste 19 Este 0 -- -- 23
2019-08-20 13:00:00 27.9 5 Sudeste 16 Norte 0 -- -- 29
2019-08-20 12:00:00 24.9 5 Noroeste 17 Oeste 0 -- -- 37
2019-08-20 11:00:00 22.2 7 Noroeste 15 Noroeste 0 -- -- 45
2019-08-20 10:00:00 19.5 8 Noroeste 16 Oeste 0 -- -- 56
2019-08-20 09:00:00 17.1 5 Noroeste 9 Noroeste 0 -- -- 66
2019-08-20 08:00:00 14.7 3 Norte 5 Oeste 0 -- -- 73
2019-08-20 07:00:00 15.3 4 Oeste 10 Sudoeste 0 -- -- 70
2019-08-20 06:00:00 16 5 Sudoeste 19 Sudoeste 0 -- -- 66
2019-08-20 05:00:00 16.6 12 Sudoeste 18 Sudoeste 0 -- -- 60
2019-08-20 04:00:00 17.7 6 Sudoeste 12 Oeste 0 -- -- 52
2019-08-20 03:00:00 19.6 5 Oeste 11 Noroeste 0 -- -- 42
2019-08-20 02:00:00 20.5 7 Noroeste 17 Noroeste 0 -- -- 36
2019-08-20 01:00:00 22.4 6 Noroeste 13 Noroeste 0 -- -- 28
2019-08-20 00:00:00 23.6 10 Noroeste 22 Noroeste 0 -- -- 25
2019-08-19 23:00:00 24.7 15 Noroeste 33 Noroeste 0 -- -- 27
2019-08-19 22:00:00 26.8 14 Noroeste 27 Noroeste 0 -- -- 20
2019-08-19 21:00:00 28 14 Oeste 26 Oeste 0 -- -- 14
2019-08-19 20:00:00 29.3 14 Oeste 26 Oeste 0 -- -- 18
2019-08-19 19:00:00 31.5 13 Oeste 29 Sudoeste 0 -- -- 11
2019-08-19 18:00:00 31.9 14 Sudoeste 28 Oeste 0 -- -- 11
2019-08-19 17:00:00 31.7 14 Sudoeste 25 Sudoeste 0 -- -- 11
2019-08-19 16:00:00 31.2 8 Sudoeste 25 Oeste 0 -- -- 12
2019-08-19 15:00:00 29.9 11 Sudoeste 25 Sudoeste 0 -- -- 17
2019-08-19 14:00:00 28.7 9 Sudoeste 20 Sudoeste 0 -- -- 19
2019-08-19 13:00:00 27.4 5 Sur 16 Sur 0 -- -- 27
2019-08-19 12:00:00 25.1 4 Sudeste 14 Oeste 0 -- -- 43
2019-08-19 11:00:00 22.9 4 Sur 9 Sudoeste 0 -- -- 56
2019-08-19 10:00:00 20 5 Noroeste 9 Noroeste 0 -- -- 64
2019-08-19 09:00:00 17.4 3 Noroeste 6 Noroeste 0 -- -- 73
2019-08-19 08:00:00 14.7 3 Norte 9 Oeste 0 -- -- 87
2019-08-19 07:00:00 15.1 6 Norte 9 Oeste 0 -- -- 84
2019-08-19 06:00:00 16 5 Noroeste 15 Noroeste 0 -- -- 83
2019-08-19 05:00:00 17.1 8 Noroeste 12 Noroeste 0 -- -- 80
2019-08-19 04:00:00 17.9 8 Oeste 15 Noroeste 0 -- -- 79
2019-08-19 03:00:00 19.4 10 Noroeste 19 Noroeste 0 -- -- 73
2019-08-19 02:00:00 20.9 12 Noroeste 22 Oeste 0 -- -- 73
2019-08-19 01:00:00 22.2 12 Noroeste 19 Noroeste 0 -- -- 66
2019-08-19 00:00:00 23.7 13 Noroeste 23 Noroeste 0 -- -- 57
2019-08-18 23:00:00 25.3 13 Noroeste 28 Oeste 0 -- -- 49
2019-08-18 22:00:00 27.3 13 Oeste 31 Oeste 0 -- -- 40
2019-08-18 21:00:00 30.3 13 Oeste 30 Oeste 0 -- -- 28
2019-08-18 20:00:00 32 16 Noroeste 28 Oeste 0 -- -- 23
2019-08-18 19:00:00 32.9 16 Oeste 32 Noroeste 0 -- -- 18
2019-08-18 18:00:00 34 12 Noroeste 35 Sudoeste 0 -- -- 15
2019-08-18 17:00:00 33.5 14 Oeste 48 Oeste 0 -- -- 19
2019-08-18 16:00:00 32.7 12 Oeste 26 Oeste 0 -- -- 21
2019-08-18 15:00:00 31.1 16 Oeste 28 Sudoeste 0 -- -- 22
2019-08-18 14:00:00 30.7 13 Oeste 24 Oeste 0 -- -- 25
2019-08-18 13:00:00 29 7 Sudoeste 19 Oeste 0 -- -- 30
2019-08-18 12:00:00 26.8 8 Noroeste 18 Oeste 0 -- -- 38
2019-08-18 11:00:00 24.1 7 Oeste 12 Oeste 0 -- -- 47
2019-08-18 10:00:00 22.1 5 Oeste 12 Noroeste 0 -- -- 58
2019-08-18 09:00:00 19.5 0 Calma 6 Sudoeste 0 -- -- 71
2019-08-18 08:00:00 16.6 2 Sur 13 Sudoeste 0 -- -- 80
2019-08-18 07:00:00 17.6 10 Sudoeste 15 Sudoeste 0 -- -- 78
2019-08-18 06:00:00 18.2 8 Sudoeste 12 Sudoeste 0 -- -- 73
2019-08-18 05:00:00 18.9 10 Sudoeste 17 Sudoeste 0 -- -- 70
2019-08-18 04:00:00 20.9 7 Sudoeste 12 Sudoeste 0 -- -- 49
2019-08-18 03:00:00 22.1 4 Oeste 10 Noroeste 0 -- -- 44
2019-08-18 02:00:00 23.3 6 Noroeste 11 Noroeste 0 -- -- 42
2019-08-18 01:00:00 24.5 8 Noroeste 15 Noroeste 0 -- -- 38
2019-08-18 00:00:00 26.6 10 Noroeste 17 Oeste 0 -- -- 22
2019-08-17 23:00:00 28.1 8 Oeste 12 Oeste 0 -- -- 16
2019-08-17 22:00:00 29.8 7 Oeste 15 Oeste 0 -- -- 14
2019-08-17 21:00:00 33.3 11 Oeste 24 Oeste 0 -- -- 11
2019-08-17 20:00:00 35.5 15 Oeste 27 Oeste 0 -- -- 5
2019-08-17 19:00:00 36.1 17 Oeste 29 Oeste 0 -- -- 2
2019-08-17 18:00:00 36.6 16 Oeste 30 Sudoeste 0 -- -- 3
2019-08-17 17:00:00 36.3 18 Sudoeste 32 Sur 0 -- -- 4
2019-08-17 16:00:00 35.9 15 Sudoeste 27 Sudoeste 0 -- -- 9
2019-08-17 15:00:00 35 14 Sur 27 Sudoeste 0 -- -- 11
2019-08-17 14:00:00 33.5 15 Sudoeste 26 Sudoeste 0 -- -- 14
2019-08-17 13:00:00 33.8 10 Sudeste 23 Sudeste 0 -- -- 16
2019-08-17 12:00:00 30.9 11 Sudeste 18 Sudeste 0 -- -- 23
2019-08-17 11:00:00 28 10 Sudeste 17 Sudeste 0 -- -- 31
2019-08-17 10:00:00 26.4 6 Sudeste 11 Sudeste 0 -- -- 32
2019-08-17 09:00:00 23 0 Calma 4 Sur 0 -- -- 37
2019-08-17 08:00:00 19.5 0 Calma 6 Sudoeste 0 -- -- 47
2019-08-17 07:00:00 20.1 2 Sudoeste 7 Sudoeste 0 -- -- 45
2019-08-17 06:00:00 20.9 3 Oeste 7 Sudoeste 0 -- -- 42
2019-08-17 05:00:00 20.4 3 Sudoeste 8 Sudoeste 0 -- -- 44
2019-08-17 04:00:00 21.6 6 Sudoeste 9 Sudoeste 0 -- -- 40
2019-08-17 03:00:00 22.8 5 Noroeste 8 Noroeste 0 -- -- 36
2019-08-17 02:00:00 23.4 6 Oeste 10 Noroeste 0 -- -- 38
2019-08-17 01:00:00 25.2 8 Noroeste 14 Oeste 0 -- -- 34
2019-08-17 00:00:00 27.3 10 Oeste 18 Oeste 0 -- -- 30
2019-08-16 23:00:00 29 10 Oeste 21 Oeste 0 -- -- 25
2019-08-16 22:00:00 31.5 12 Sudoeste 22 Oeste 0 -- -- 20
2019-08-16 21:00:00 34.1 15 Oeste 30 Sudoeste 0 -- -- 17
2019-08-16 20:00:00 35.6 16 Sudoeste 26 Oeste 0 -- -- 18
2019-08-16 19:00:00 36.6 17 Oeste 28 Sudoeste 0 -- -- 15
2019-08-16 18:00:00 36.6 15 Oeste 29 Oeste 0 -- -- 15
2019-08-16 17:00:00 36.4 16 Sudoeste 31 Sudoeste 0 -- -- 17
2019-08-16 16:00:00 36.1 16 Sudoeste 26 Oeste 0 -- -- 17
2019-08-16 15:00:00 35.4 14 Oeste 33 Sudoeste 0 -- -- 18
2019-08-16 14:00:00 34.6 12 Sudoeste 23 Sudoeste 0 -- -- 22
2019-08-16 13:00:00 33.7 10 Sur 19 Sur 0 -- -- 25
2019-08-16 12:00:00 30.8 5 Oeste 13 Sudoeste 0 -- -- 30
2019-08-16 11:00:00 27.4 6 Oeste 13 Noroeste 0 -- -- 37
2019-08-16 10:00:00 24.5 9 Noroeste 14 Oeste 0 -- -- 46
2019-08-16 09:00:00 22.1 6 Oeste 10 Oeste 0 -- -- 53
2019-08-16 08:00:00 19.9 6 Noroeste 11 Noroeste 0 -- -- 60
2019-08-16 07:00:00 20.5 9 Oeste 12 Oeste 0 -- -- 55
2019-08-16 06:00:00 21.4 8 Oeste 16 Norte 0 -- -- 51
2019-08-16 05:00:00 21.7 9 Noroeste 13 Noroeste 0 -- -- 47
2019-08-16 04:00:00 22.3 8 Noroeste 10 Noroeste 0 -- -- 44
2019-08-16 03:00:00 23.7 6 Oeste 13 Oeste 0 -- -- 38
2019-08-16 02:00:00 25.1 11 Noroeste 15 Noroeste 0 -- -- 37
2019-08-16 01:00:00 26.3 9 Noroeste 16 Noroeste 0 -- -- 31
2019-08-16 00:00:00 27.6 10 Oeste 14 Oeste 0 -- -- 25
2019-08-15 23:00:00 30.8 5 Oeste 7 Sudoeste 0 -- -- 17
2019-08-15 22:00:00 31.5 7 Sudoeste 10 Noroeste 0 -- -- 16
2019-08-15 21:00:00 34.7 6 Noroeste 19 Oeste 0 -- -- 14
2019-08-15 20:00:00 36.3 11 Noroeste 27 Noroeste 0 -- -- 12
2019-08-15 19:00:00 36.7 13 Noroeste 23 Noroeste 0 -- -- 12
2019-08-15 18:00:00 36.9 10 Norte 31 Noroeste 0 -- -- 13
2019-08-15 17:00:00 36.9 13 Noroeste 29 Noroeste 0 -- -- 15
2019-08-15 16:00:00 36.3 13 Norte 31 Noroeste 0 -- -- 16
2019-08-15 15:00:00 35.7 13 Noroeste 27 Noroeste 0 -- -- 18
2019-08-15 14:00:00 34.1 9 Norte 20 Oeste 0 -- -- 19
2019-08-15 13:00:00 33.4 8 Sudoeste 19 Oeste 0 -- -- 25
2019-08-15 12:00:00 31 10 Oeste 16 Oeste 0 -- -- 32
2019-08-15 11:00:00 28 7 Oeste 14 Oeste 0 -- -- 39
2019-08-15 10:00:00 24.9 6 Oeste 12 Oeste 0 -- -- 50
2019-08-15 09:00:00 22 4 Oeste 8 Oeste 0 -- -- 63
2019-08-15 08:00:00 19.2 4 Noroeste 8 Noroeste 0 -- -- 71
2019-08-15 07:00:00 19.1 7 Noroeste 9 Noroeste 0 -- -- 68
2019-08-15 06:00:00 20.2 7 Oeste 9 Oeste 0 -- -- 61
2019-08-15 05:00:00 20.7 8 Oeste 10 Oeste 0 -- -- 55
2019-08-15 04:00:00 21.4 8 Noroeste 10 Oeste 0 -- -- 49
2019-08-15 03:00:00 22.6 8 Oeste 11 Noroeste 0 -- -- 42
2019-08-15 02:00:00 23.5 7 Noroeste 10 Noroeste 0 -- -- 36
2019-08-15 01:00:00 24.5 7 Noroeste 14 Oeste 0 -- -- 25
2019-08-15 00:00:00 25.7 10 Oeste 14 Noroeste 0 -- -- 19
2019-08-14 23:00:00 28.1 6 Norte 9 Norte 0 -- -- 15
2019-08-14 22:00:00 29.4 5 Norte 11 Noroeste 0 -- -- 14
2019-08-14 21:00:00 32.7 8 Noroeste 18 Oeste 0 -- -- 11
2019-08-14 20:00:00 34.5 11 Noroeste 27 Noroeste 0 -- -- 10
2019-08-14 19:00:00 35 11 Noroeste 25 Noroeste 0 -- -- 9
2019-08-14 18:00:00 35.1 14 Noroeste 27 Noroeste 0 -- -- 9
2019-08-14 17:00:00 34.7 13 Noroeste 26 Oeste 0 -- -- 10
2019-08-14 16:00:00 34.2 10 Oeste 23 Noroeste 0 -- -- 10
2019-08-14 15:00:00 33.1 13 Noroeste 25 Noroeste 0 -- -- 12
2019-08-14 14:00:00 32.5 8 Norte 24 Noroeste 0 -- -- 12
2019-08-14 13:00:00 31.6 12 Noroeste 28 Oeste 0 -- -- 13
2019-08-14 12:00:00 29.8 6 Noroeste 13 Noroeste 0 -- -- 15
2019-08-14 11:00:00 25.7 4 Noroeste 11 Oeste 0 -- -- 22
2019-08-14 10:00:00 22.1 6 Oeste 10 Oeste 0 -- -- 29
2019-08-14 09:00:00 19.3 8 Noroeste 12 Noroeste 0 -- -- 34
2019-08-14 08:00:00 16.9 7 Oeste 9 Noroeste 0 -- -- 35
2019-08-14 07:00:00 16.8 6 Noroeste 10 Noroeste 0 -- -- 33
2019-08-14 06:00:00 17.7 8 Noroeste 10 Oeste 0 -- -- 28
2019-08-14 05:00:00 18.6 8 Oeste 10 Oeste 0 -- -- 26
2019-08-14 04:00:00 18.5 8 Noroeste 9 Noroeste 0 -- -- 26
2019-08-14 03:00:00 19.3 3 Noroeste 12 Oeste 0 -- -- 24
2019-08-14 02:00:00 20.7 5 Noroeste 11 Noroeste 0 -- -- 21
2019-08-14 01:00:00 23.3 6 Norte 9 Norte 0 -- -- 17
2019-08-14 00:00:00 24.4 3 Noroeste 10 Norte 0 -- -- 15
2019-08-13 23:00:00 25.5 7 Norte 15 Norte 0 -- -- 14
2019-08-13 22:00:00 27.1 10 Norte 18 Norte 0 -- -- 13
2019-08-13 21:00:00 30 9 Norte 22 Norte 0 -- -- 12
2019-08-13 20:00:00 31.9 10 Norte 20 Noroeste 0 -- -- 10
2019-08-13 19:00:00 33 8 Oeste 21 Norte 0 -- -- 8
2019-08-13 18:00:00 32.9 10 Noroeste 22 Noroeste 0 -- -- 8
2019-08-13 17:00:00 32.9 13 Noroeste 25 Noroeste 0 -- -- 8
2019-08-13 16:00:00 32.7 6 Noroeste 26 Noroeste 0 -- -- 9
2019-08-13 15:00:00 31.7 10 Noroeste 20 Noroeste 0 -- -- 10
2019-08-13 14:00:00 31 10 Oeste 18 Oeste 0 -- -- 10
2019-08-13 13:00:00 29.2 6 Sudoeste 13 Sudoeste 0 -- -- 13
2019-08-13 12:00:00 27.1 4 Noroeste 13 Noroeste 0 -- -- 16
2019-08-13 11:00:00 23.8 6 Oeste 12 Oeste 0 -- -- 21
2019-08-13 10:00:00 19.2 6 Noroeste 12 Oeste 0 -- -- 29
2019-08-13 09:00:00 16.2 6 Oeste 11 Oeste 0 -- -- 33
2019-08-13 08:00:00 14.1 8 Oeste 10 Oeste 0 -- -- 35
2019-08-13 07:00:00 14 8 Oeste 10 Oeste 0 -- -- 35
2019-08-13 06:00:00 14.9 9 Oeste 12 Oeste 0 -- -- 33
2019-08-13 05:00:00 16.2 7 Oeste 13 Oeste 0 -- -- 30
2019-08-13 04:00:00 17.2 8 Noroeste 9 Oeste 0 -- -- 30
2019-08-13 03:00:00 18.6 8 Oeste 10 Noroeste 0 -- -- 25
2019-08-13 02:00:00 19.1 8 Noroeste 10 Noroeste 0 -- -- 25
2019-08-13 01:00:00 19.6 6 Oeste 10 Noroeste 0 -- -- 20
2019-08-13 00:00:00 20.5 8 Oeste 12 Norte 0 -- -- 19
2019-08-12 23:00:00 23.2 8 Norte 14 Norte 0 -- -- 18
2019-08-12 22:00:00 24.3 9 Noroeste 25 Noroeste 0 -- -- 13
2019-08-12 21:00:00 26.9 12 Norte 28 Noroeste 0 -- -- 15
2019-08-12 20:00:00 28.6 12 Noroeste 25 Noroeste 0 -- -- 14
2019-08-12 19:00:00 29.4 13 Norte 28 Norte 0 -- -- 10
2019-08-12 18:00:00 29.6 12 Noroeste 28 Norte 0 -- -- 10
2019-08-12 17:00:00 29.5 9 Norte 26 Norte 0 -- -- 11
2019-08-12 16:00:00 28.9 10 Norte 28 Norte 0 -- -- 13
2019-08-12 15:00:00 27.9 9 Nordeste 27 Norte 0 -- -- 15
2019-08-12 14:00:00 26.9 12 Nordeste 26 Nordeste 0 -- -- 17
2019-08-12 13:00:00 25.5 12 Nordeste 30 Este 0 -- -- 21
2019-08-12 12:00:00 23.7 13 Norte 23 Nordeste 0 -- -- 26
2019-08-12 11:00:00 20.8 14 Norte 24 Noroeste 0 -- -- 33
2019-08-12 10:00:00 19 17 Norte 28 Noroeste 0 -- -- 37
2019-08-12 09:00:00 14.6 9 Noroeste 21 Noroeste 0 -- -- 64
2019-08-12 08:00:00 12 14 Noroeste 23 Noroeste 0 -- -- 75
2019-08-12 07:00:00 12.5 11 Noroeste 24 Noroeste 0 -- -- 72
2019-08-12 06:00:00 13.1 13 Noroeste 22 Noroeste 0 -- -- 68
2019-08-12 05:00:00 13.6 11 Noroeste 20 Noroeste 0 -- -- 64
2019-08-12 04:00:00 14.5 13 Noroeste 22 Noroeste 0 -- -- 60
2019-08-12 03:00:00 15.5 13 Noroeste 24 Noroeste 0 -- -- 56
2019-08-12 02:00:00 16.7 13 Noroeste 28 Noroeste 0 -- -- 51
2019-08-12 01:00:00 17.9 18 Noroeste 31 Noroeste 0 -- -- 46
2019-08-12 00:00:00 19.5 20 Noroeste 41 Noroeste 0 -- -- 39
2019-08-11 23:00:00 21.2 21 Noroeste 36 Noroeste 0 -- -- 32
2019-08-11 22:00:00 22.6 12 Noroeste 28 Noroeste 0 -- -- 24
2019-08-11 21:00:00 24.7 18 Noroeste 32 Oeste 0 -- -- 20
2019-08-11 20:00:00 26.4 18 Noroeste 32 Oeste 0 -- -- 18
2019-08-11 19:00:00 27.2 18 Noroeste 32 Oeste 0 -- -- 17
2019-08-11 18:00:00 27.4 18 Noroeste 38 Oeste 0 -- -- 16
2019-08-11 17:00:00 27 13 Noroeste 34 Noroeste 0 -- -- 17
2019-08-11 16:00:00 26.4 15 Noroeste 36 Noroeste 0 -- -- 19
2019-08-11 15:00:00 26.1 17 Noroeste 34 Oeste 0 -- -- 18
2019-08-11 14:00:00 24.8 17 Oeste 31 Noroeste 0 -- -- 23
2019-08-11 13:00:00 23.6 13 Noroeste 29 Oeste 0 -- -- 32
2019-08-11 12:00:00 21.7 14 Noroeste 26 Oeste 0 -- -- 41
2019-08-11 11:00:00 19.5 14 Noroeste 24 Noroeste 0 -- -- 50
2019-08-11 10:00:00 18 14 Noroeste 23 Noroeste 0 -- -- 60
2019-08-11 09:00:00 16.2 10 Noroeste 14 Noroeste 0 -- -- 67
2019-08-11 08:00:00 14.5 8 Noroeste 14 Oeste 0 -- -- 73
2019-08-11 07:00:00 15.4 10 Oeste 14 Oeste 0 -- -- 67
2019-08-11 06:00:00 16.4 7 Oeste 25 Oeste 0 -- -- 59
2019-08-11 05:00:00 18.3 14 Sudoeste 24 Sudoeste 0 -- -- 52
2019-08-11 04:00:00 18.9 8 Noroeste 22 Noroeste 0 -- -- 51
2019-08-11 03:00:00 19.4 9 Noroeste 24 Oeste 0 -- -- 49
2019-08-11 02:00:00 20.2 16 Oeste 23 Oeste 0 -- -- 46
2019-08-11 01:00:00 20.5 10 Noroeste 22 Noroeste 0 -- -- 49
2019-08-11 00:00:00 22.4 15 Noroeste 23 Noroeste 0 -- -- 39
2019-08-10 23:00:00 23.5 10 Noroeste 17 Oeste 0 -- -- 33
2019-08-10 22:00:00 25.3 11 Oeste 22 Oeste 0 -- -- 29
2019-08-10 21:00:00 27.7 11 Oeste 23 Sudoeste 0 -- -- 21
2019-08-10 20:00:00 30 11 Oeste 25 Sudoeste 0 -- -- 14
2019-08-10 19:00:00 30.7 11 Oeste 27 Oeste 0 -- -- 13
2019-08-10 18:00:00 31.4 11 Noroeste 26 Oeste 0 -- -- 13
2019-08-10 17:00:00 30.7 10 Noroeste 23 Oeste 0 -- -- 18
2019-08-10 16:00:00 30.6 10 Oeste 19 Oeste 0 -- -- 19
2019-08-10 15:00:00 28.8 7 Oeste 15 Oeste 0 -- -- 15
2019-08-10 14:00:00 27.8 5 Sur 18 Oeste 0 -- -- 20
2019-08-10 13:00:00 26 8 Oeste 19 Noroeste 0 -- -- 31
2019-08-10 12:00:00 23.8 6 Oeste 14 Noroeste 0 -- -- 46
2019-08-10 11:00:00 21.6 8 Noroeste 13 Noroeste 0 -- -- 54
2019-08-10 10:00:00 19.3 8 Oeste 12 Oeste 0 -- -- 72
2019-08-10 09:00:00 17.2 0 Calma 6 Oeste 0 -- -- 79
2019-08-10 08:00:00 14.2 3 Oeste 6 Oeste 0 -- -- 89
2019-08-10 07:00:00 14.3 5 Oeste 9 Noroeste 0 -- -- 87
2019-08-10 06:00:00 14.9 6 Noroeste 10 Noroeste 0 -- -- 85
2019-08-10 05:00:00 16 8 Noroeste 17 Oeste 0 -- -- 81
2019-08-10 04:00:00 17.1 10 Noroeste 15 Noroeste 0 -- -- 77
2019-08-10 03:00:00 17.9 8 Noroeste 15 Noroeste 0 -- -- 73
2019-08-10 02:00:00 18.5 5 Oeste 6 Oeste 0 -- -- 71
2019-08-10 01:00:00 18.8 4 Noroeste 12 Oeste 0 -- -- 71
2019-08-10 00:00:00 19.7 4 Oeste 8 Noroeste 0 -- -- 69
2019-08-09 23:00:00 21 6 Norte 14 Norte 0 -- -- 64
2019-08-09 22:00:00 22.4 9 Noroeste 18 Oeste 0 -- -- 65
2019-08-09 21:00:00 24.1 10 Noroeste 18 Noroeste 0 -- -- 61
2019-08-09 20:00:00 24.7 13 Noroeste 28 Noroeste 0 -- -- 60
2019-08-09 19:00:00 25.1 14 Noroeste 26 Noroeste 0 -- -- 57
2019-08-09 18:00:00 24.8 15 Noroeste 30 Noroeste 0 -- -- 63
2019-08-09 17:00:00 24 20 Noroeste 36 Noroeste 0 -- -- 70
2019-08-09 16:00:00 23.1 22 Noroeste 42 Oeste 0 -- -- 79
2019-08-09 15:00:00 27.7 19 Sudoeste 33 Sudoeste 0 -- -- 62
2019-08-09 14:00:00 26.3 15 Sudoeste 25 Sudoeste 0 -- -- 66
2019-08-09 13:00:00 24.4 9 Sudoeste 24 Sudoeste 0 -- -- 79
2019-08-09 12:00:00 22.9 12 Sudoeste 20 Sur 0 -- -- 80
2019-08-09 11:00:00 21.7 9 Sudeste 19 Sur 0 -- -- 89
2019-08-09 10:00:00 20.6 7 Sur 14 Sur 0 -- -- 95
2019-08-09 09:00:00 20 7 Sur 15 Sur 0 -- -- 94
2019-08-09 08:00:00 19.7 9 Sur 16 Sudoeste 0 -- -- 94
2019-08-09 07:00:00 20.3 14 Sudoeste 23 Sudoeste 0 -- -- 88
2019-08-09 06:00:00 20.4 16 Sudoeste 23 Sudoeste 0 -- -- 86
2019-08-09 05:00:00 20.2 12 Sudoeste 21 Oeste 0 -- -- 87
2019-08-09 04:00:00 20.5 12 Oeste 22 Oeste 0 -- -- 85
2019-08-09 03:00:00 21.5 14 Oeste 22 Sudoeste 0 -- -- 80
2019-08-09 02:00:00 23 11 Oeste 21 Oeste 0 -- -- 71
2019-08-09 01:00:00 24.1 6 Oeste 20 Noroeste 0 -- -- 58
2019-08-09 00:00:00 25.2 11 Noroeste 23 Oeste 0 -- -- 52
2019-08-08 23:00:00 26.7 14 Oeste 28 Oeste 0 -- -- 44
2019-08-08 22:00:00 28.2 13 Oeste 27 Oeste 0 -- -- 39
2019-08-08 21:00:00 30.4 18 Oeste 35 Oeste 0 -- -- 32
2019-08-08 20:00:00 31.8 19 Oeste 43 Sudoeste 0 -- -- 30
2019-08-08 19:00:00 32.5 18 Oeste 39 Sudoeste 0 -- -- 28
2019-08-08 18:00:00 32.4 19 Sudoeste 37 Sur 0 -- -- 28
2019-08-08 17:00:00 32.2 22 Sudoeste 37 Sudoeste 0 -- -- 26
2019-08-08 16:00:00 32 17 Sudoeste 31 Sur 0 -- -- 26
2019-08-08 15:00:00 30.9 14 Sudoeste 27 Sudoeste 0 -- -- 30
2019-08-08 14:00:00 29.9 14 Sudoeste 27 Sur 0 -- -- 34
2019-08-08 13:00:00 28.9 15 Sudoeste 30 Sur 0 -- -- 40
2019-08-08 12:00:00 28.9 11 Sudeste 22 Sudeste 0 -- -- 39
2019-08-08 11:00:00 26.7 6 Sudeste 13 Sudeste 0 -- -- 45
2019-08-08 10:00:00 25.2 4 Sudeste 8 Sudeste 0 -- -- 49
2019-08-08 09:00:00 21.5 0 Calma 6 Norte 0 -- -- 63
2019-08-08 08:00:00 18.8 0 Calma 4 Oeste 0 -- -- 71
2019-08-08 07:00:00 18.9 0 Calma 5 Oeste 0 -- -- 72
2019-08-08 06:00:00 19.1 4 Oeste 6 Oeste 0 -- -- 70
2019-08-08 05:00:00 20 4 Noroeste 10 Oeste 0 -- -- 66
2019-08-08 04:00:00 20.9 9 Oeste 14 Oeste 0 -- -- 62
2019-08-08 03:00:00 22.1 10 Sudoeste 17 Sudoeste 0 -- -- 56
2019-08-08 02:00:00 22.4 6 Sudoeste 9 Sudoeste 0 -- -- 55
2019-08-08 01:00:00 22.6 4 Oeste 9 Oeste 0 -- -- 54
2019-08-08 00:00:00 22.6 4 Sur 7 Sudoeste 0 -- -- 50
2019-08-07 23:00:00 23 5 Sur 14 Sudoeste 0 -- -- 52
2019-08-07 22:00:00 24.1 10 Sudoeste 17 Sudoeste 0 -- -- 52
2019-08-07 21:00:00 26.1 13 Sudoeste 23 Sur 0 -- -- 47
2019-08-07 20:00:00 28.6 14 Sur 24 Sur 0 -- -- 38
2019-08-07 19:00:00 28.3 12 Oeste 20 Oeste 0 -- -- 39
2019-08-07 18:00:00 27.3 4 Noroeste 10 Oeste 0 -- -- 41
2019-08-07 17:00:00 26.3 6 Noroeste 19 Oeste 0 -- -- 44
2019-08-07 16:00:00 26 6 Noroeste 16 Noroeste 0 -- -- 46
2019-08-07 15:00:00 25.4 9 Noroeste 23 Oeste 0 -- -- 48
2019-08-07 14:00:00 24.8 10 Norte 26 Noroeste 0 -- -- 50
2019-08-07 13:00:00 24.9 11 Noroeste 22 Oeste 0 -- -- 51
2019-08-07 12:00:00 24.2 12 Oeste 23 Oeste 0 -- -- 59
2019-08-07 11:00:00 23.2 8 Oeste 17 Oeste 0 -- -- 61
2019-08-07 10:00:00 19.6 6 Sur 18 Sudoeste 0 -- -- 80
2019-08-07 09:00:00 17.9 9 Sudoeste 17 Sudoeste 0 -- -- 87
2019-08-07 08:00:00 17.7 10 Sudoeste 16 Sudoeste 0 -- -- 88
2019-08-07 07:00:00 17.9 10 Sudoeste 18 Sudoeste 0 -- -- 85
2019-08-07 06:00:00 18.6 9 Sudoeste 18 Sudoeste 0 -- -- 80
2019-08-07 05:00:00 18.9 10 Sudoeste 15 Sudoeste 0 -- -- 77
2019-08-07 04:00:00 19.6 8 Sudoeste 16 Sudoeste 0 -- -- 70
2019-08-07 03:00:00 20.4 9 Sudoeste 14 Sudoeste 0 -- -- 70
2019-08-07 02:00:00 21.9 6 Oeste 17 Oeste 0 -- -- 54
2019-08-07 01:00:00 22.9 9 Oeste 18 Oeste 0 -- -- 50
2019-08-07 00:00:00 24.2 10 Oeste 20 Oeste 0 -- -- 47
2019-08-06 23:00:00 25.5 10 Oeste 19 Oeste 0 -- -- 43
2019-08-06 22:00:00 27.5 12 Oeste 25 Oeste 0 -- -- 35
2019-08-06 21:00:00 29.5 15 Oeste 29 Sudoeste 0 -- -- 27
2019-08-06 20:00:00 31.2 13 Oeste 28 Oeste 0 -- -- 23
2019-08-06 19:00:00 32.6 15 Oeste 32 Sudoeste 0 -- -- 19
2019-08-06 18:00:00 32.4 15 Oeste 32 Sudoeste 0 -- -- 19
2019-08-06 17:00:00 33.6 17 Oeste 35 Sudoeste 0 -- -- 21
2019-08-06 16:00:00 32.5 16 Sudoeste 31 Sur 0 -- -- 23
2019-08-06 15:00:00 31.5 18 Sudoeste 29 Sur 0 -- -- 25
2019-08-06 14:00:00 29.3 17 Sur 26 Sudoeste 0 -- -- 40
2019-08-06 13:00:00 27.3 11 Sudoeste 23 Sudoeste 0 -- -- 48
2019-08-06 12:00:00 25.9 15 Sudoeste 22 Sudoeste 0 -- -- 53
2019-08-06 11:00:00 24.3 13 Sudoeste 22 Sudoeste 0 -- -- 58
2019-08-06 10:00:00 22.5 10 Sudeste 16 Sudeste 0 -- -- 65
2019-08-06 09:00:00 19.4 12 Sudeste 17 Sudeste 0 -- -- 76
2019-08-06 08:00:00 16.1 7 Sur 15 Sudoeste 0 -- -- 92
2019-08-06 07:00:00 16.2 9 Sudoeste 25 Sudoeste 0 -- -- 89
2019-08-06 06:00:00 17.4 19 Sudoeste 28 Sudoeste 0 -- -- 81
2019-08-06 05:00:00 19 8 Sudoeste 14 Sudoeste 0 -- -- 61
2019-08-06 04:00:00 20.8 8 Sudoeste 12 Sudoeste 0 -- -- 47
2019-08-06 03:00:00 21.6 9 Sudoeste 13 Sur 0 -- -- 45
2019-08-06 02:00:00 23.3 5 Sudoeste 12 Oeste 0 -- -- 37
2019-08-06 01:00:00 24.6 9 Oeste 13 Oeste 0 -- -- 34
2019-08-06 00:00:00 26.1 10 Oeste 14 Oeste 0 -- -- 28
2019-08-05 23:00:00 27.4 6 Oeste 13 Oeste 0 -- -- 24
2019-08-05 22:00:00 29.1 9 Oeste 18 Sudoeste 0 -- -- 22
2019-08-05 21:00:00 32.5 10 Oeste 22 Oeste 0 -- -- 15
2019-08-05 20:00:00 34 9 Sudoeste 24 Sudoeste 0 -- -- 8
2019-08-05 19:00:00 34.6 15 Oeste 26 Sudoeste 0 -- -- 5
2019-08-05 18:00:00 35 13 Sudoeste 26 Oeste 0 -- -- 4
2019-08-05 17:00:00 34.1 14 Sudoeste 27 Oeste 0 -- -- 5
2019-08-05 16:00:00 33.2 17 Sudoeste 28 Sudoeste 0 -- -- 9
2019-08-05 15:00:00 32.3 15 Sudoeste 25 Sur 0 -- -- 14
2019-08-05 14:00:00 30.7 15 Sudoeste 23 Sudoeste 0 -- -- 17
2019-08-05 13:00:00 29 14 Sudoeste 21 Sudoeste 0 -- -- 21
2019-08-05 12:00:00 27.9 7 Sudoeste 18 Sudeste 0 -- -- 26
2019-08-05 11:00:00 25 6 Sudoeste 14 Sudeste 0 -- -- 34
2019-08-05 10:00:00 23.8 7 Sudeste 12 Sudeste 0 -- -- 38
2019-08-05 09:00:00 20 2 Sudoeste 10 Sudoeste 0 -- -- 48
2019-08-05 08:00:00 17.8 7 Sur 13 Sudoeste 0 -- -- 60
2019-08-05 07:00:00 17.4 8 Sudoeste 16 Sudoeste 0 -- -- 67
2019-08-05 06:00:00 17.9 10 Sudoeste 14 Sudoeste 0 -- -- 67
2019-08-05 05:00:00 18.3 4 Noroeste 4 Noroeste 0 -- -- 63
2019-08-05 04:00:00 19.2 3 Sudoeste 4 Sudoeste 0 -- -- 56
2019-08-05 03:00:00 19.5 3 Noroeste 10 Noroeste 0 -- -- 54
2019-08-05 02:00:00 20.9 7 Noroeste 13 Noroeste 0 -- -- 48
2019-08-05 01:00:00 22.1 8 Oeste 11 Oeste 0 -- -- 45
2019-08-05 00:00:00 24.5 7 Noroeste 18 Oeste 0 -- -- 39
2019-08-04 23:00:00 26.4 11 Noroeste 21 Oeste 0 -- -- 34
2019-08-04 22:00:00 28.7 12 Oeste 25 Oeste 0 -- -- 27
2019-08-04 21:00:00 31.7 15 Oeste 30 Sudoeste 0 -- -- 20
2019-08-04 20:00:00 33.6 14 Sudoeste 26 Oeste 0 -- -- 16
2019-08-04 19:00:00 34.6 12 Oeste 29 Oeste 0 -- -- 14
2019-08-04 18:00:00 34.6 14 Oeste 33 Oeste 0 -- -- 17
2019-08-04 17:00:00 34.1 12 Oeste 25 Oeste 0 -- -- 20
2019-08-04 16:00:00 32.7 11 Sudoeste 24 Sudoeste 0 -- -- 23
2019-08-04 15:00:00 31.9 9 Sudoeste 21 Sur 0 -- -- 26
2019-08-04 14:00:00 30.2 8 Sudoeste 18 Sudoeste 0 -- -- 34
2019-08-04 13:00:00 28.4 8 Sudoeste 18 Sur 0 -- -- 43
2019-08-04 12:00:00 26.2 9 Sudoeste 17 Sudoeste 0 -- -- 50
2019-08-04 11:00:00 25.9 6 Sudeste 14 Sudeste 0 -- -- 54
2019-08-04 10:00:00 23.3 5 Sudeste 10 Sur 0 -- -- 62
2019-08-04 09:00:00 19 3 Sur 17 Sudoeste 0 -- -- 79
2019-08-04 08:00:00 16.6 12 Sudoeste 25 Sudoeste 0 -- -- 89
2019-08-04 07:00:00 17.8 7 Sudeste 16 Sudoeste 0 -- -- 75
2019-08-04 06:00:00 18.4 11 Sudoeste 17 Sudoeste 0 -- -- 79
2019-08-04 05:00:00 19.4 8 Sudoeste 13 Sudoeste 0 -- -- 70
2019-08-04 04:00:00 20.6 6 Sudoeste 15 Sudoeste 0 -- -- 60
2019-08-04 03:00:00 21.8 9 Sudoeste 14 Sudoeste 0 -- -- 55
2019-08-04 02:00:00 23.2 7 Noroeste 11 Oeste 0 -- -- 44
2019-08-04 01:00:00 24.7 7 Oeste 15 Oeste 0 -- -- 38
2019-08-04 00:00:00 25.9 9 Oeste 16 Noroeste 0 -- -- 33
2019-08-03 23:00:00 27.6 9 Oeste 15 Oeste 0 -- -- 17
2019-08-03 22:00:00 28.9 8 Oeste 15 Oeste 0 -- -- 16
2019-08-03 21:00:00 32.5 9 Oeste 21 Oeste 0 -- -- 13
2019-08-03 20:00:00 33.9 11 Sudoeste 23 Oeste 0 -- -- 8
2019-08-03 19:00:00 34.3 11 Oeste 28 Sudoeste 0 -- -- 8
2019-08-03 18:00:00 34.3 13 Sudoeste 25 Sudoeste 0 -- -- 11
2019-08-03 17:00:00 34.1 14 Sudoeste 27 Sur 0 -- -- 13
2019-08-03 16:00:00 33.3 14 Sudoeste 28 Sur 0 -- -- 14
2019-08-03 15:00:00 33.1 10 Sudoeste 36 Sudoeste 0 -- -- 16
2019-08-03 14:00:00 32.2 11 Sudoeste 29 Sudoeste 0 -- -- 17
2019-08-03 13:00:00 31.1 11 Sudoeste 19 Sudoeste 0 -- -- 22
2019-08-03 12:00:00 28.7 7 Sur 15 Sudoeste 0 -- -- 30
2019-08-03 11:00:00 25.7 9 Sudoeste 18 Sur 0 -- -- 38
2019-08-03 10:00:00 24.6 12 Sur 19 Sur 0 -- -- 42
2019-08-03 09:00:00 21.9 6 Sudeste 12 Sur 0 -- -- 53
2019-08-03 08:00:00 19.6 9 Sur 15 Sur 0 -- -- 62
2019-08-03 07:00:00 19.4 6 Sudoeste 12 Sudoeste 0 -- -- 63
2019-08-03 06:00:00 20.6 8 Sudoeste 11 Sudoeste 0 -- -- 57
2019-08-03 05:00:00 21 2 Sudoeste 5 Oeste 0 -- -- 53
2019-08-03 04:00:00 21.6 0 Calma 6 Norte 0 -- -- 52
2019-08-03 03:00:00 22.5 6 Norte 9 Noroeste 0 -- -- 45
2019-08-03 02:00:00 23.1 7 Norte 8 Norte 0 -- -- 41
2019-08-03 01:00:00 24.1 6 Noroeste 13 Noroeste 0 -- -- 33
2019-08-03 00:00:00 26.4 10 Oeste 16 Oeste 0 -- -- 25
2019-08-02 23:00:00 27.5 7 Sudoeste 10 Sudoeste 0 -- -- 17
2019-08-02 22:00:00 29.2 6 Sudoeste 11 Oeste 0 -- -- 13
2019-08-02 21:00:00 33 6 Oeste 14 Sudoeste 0 -- -- 9
2019-08-02 20:00:00 34.4 6 Sudoeste 16 Sudoeste 0 -- -- 8
2019-08-02 19:00:00 34.4 10 Sudoeste 19 Sudoeste 0 -- -- 8
2019-08-02 18:00:00 34.7 5 Norte 19 Oeste 0 -- -- 8
2019-08-02 17:00:00 34.1 8 Oeste 20 Oeste 0 -- -- 8
2019-08-02 16:00:00 33.5 6 Oeste 21 Sudoeste 0 -- -- 9
2019-08-02 15:00:00 32.4 11 Sudoeste 23 Sudoeste 0 -- -- 11
2019-08-02 14:00:00 31.2 9 Sur 19 Sudoeste 0 -- -- 15
2019-08-02 13:00:00 28.7 6 Sudeste 16 Sudoeste 0 -- -- 24
2019-08-02 12:00:00 26.3 7 Sudoeste 13 Sur 0 -- -- 31
2019-08-02 11:00:00 23.7 5 Sur 10 Sur 0 -- -- 37
2019-08-02 10:00:00 20.3 6 Sudoeste 13 Sur 0 -- -- 54
2019-08-02 09:00:00 16.7 8 Sudoeste 17 Sudoeste 0 -- -- 76
2019-08-02 08:00:00 14.9 5 Sur 14 Sudoeste 0 -- -- 78
2019-08-02 07:00:00 15.5 8 Sudoeste 12 Sudoeste 0 -- -- 73
2019-08-02 06:00:00 16.2 3 Sudoeste 9 Sudoeste 0 -- -- 60
2019-08-02 05:00:00 16.9 6 Sudoeste 10 Sudoeste 0 -- -- 54
2019-08-02 04:00:00 18.3 6 Sudoeste 9 Sudoeste 0 -- -- 43
2019-08-02 03:00:00 19.3 5 Noroeste 10 Norte 0 -- -- 39
2019-08-02 02:00:00 20.8 6 Norte 12 Noroeste 0 -- -- 31
2019-08-02 01:00:00 23 10 Noroeste 15 Oeste 0 -- -- 27
2019-08-02 00:00:00 24.2 12 Oeste 16 Oeste 0 -- -- 25
2019-08-01 23:00:00 25.8 12 Oeste 21 Oeste 0 -- -- 22
2019-08-01 22:00:00 28.3 13 Oeste 31 Sudoeste 0 -- -- 20
2019-08-01 21:00:00 31.3 17 Sudoeste 31 Sudoeste 0 -- -- 16
2019-08-01 20:00:00 33 12 Sudoeste 28 Oeste 0 -- -- 15
2019-08-01 19:00:00 33.7 14 Sudoeste 32 Sudoeste 0 -- -- 15
2019-08-01 18:00:00 33.9 15 Oeste 35 Sudoeste 0 -- -- 14
2019-08-01 17:00:00 33.4 15 Sudoeste 31 Sudoeste 0 -- -- 17
2019-08-01 16:00:00 33.5 14 Oeste 29 Oeste 0 -- -- 17
2019-08-01 15:00:00 32.1 14 Oeste 39 Sudoeste 0 -- -- 19
2019-08-01 14:00:00 31 12 Sur 26 Sudoeste 0 -- -- 22
2019-08-01 13:00:00 29.2 15 Sudoeste 24 Sur 0 -- -- 25
2019-08-01 12:00:00 27.7 13 Sudoeste 21 Oeste 0 -- -- 28
2019-08-01 11:00:00 26.2 11 Sudoeste 18 Sudoeste 0 -- -- 31
2019-08-01 10:00:00 24.7 8 Oeste 15 Sudoeste 0 -- -- 34
2019-08-01 09:00:00 21.2 8 Sur 14 Sudoeste 0 -- -- 45
2019-08-01 08:00:00 18 8 Sudoeste 12 Sur 0 -- -- 53
2019-08-01 07:00:00 18 7 Sudoeste 17 Sudoeste 0 -- -- 54
2019-08-01 06:00:00 20 7 Sudoeste 10 Sudoeste 0 -- -- 43
2019-08-01 05:00:00 20.7 5 Sudoeste 10 Sudoeste 0 -- -- 40
2019-08-01 04:00:00 21.8 4 Oeste 5 Oeste 0 -- -- 36
2019-08-01 03:00:00 22 5 Oeste 8 Oeste 0 -- -- 34
2019-08-01 02:00:00 22.9 5 Noroeste 11 Noroeste 0 -- -- 32
2019-08-01 01:00:00 23.9 10 Noroeste 15 Noroeste 0 -- -- 29
2019-08-01 00:00:00 24.7 7 Noroeste 16 Noroeste 0 -- -- 28
2019-07-31 23:00:00 26.3 11 Noroeste 22 Oeste 0 -- -- 23
2019-07-31 22:00:00 27.7 10 Oeste 17 Oeste 0 -- -- 12
2019-07-31 21:00:00 30.8 9 Noroeste 18 Oeste 0 -- -- 10
2019-07-31 20:00:00 33.2 7 Sudoeste 30 Noroeste 0 -- -- 9
2019-07-31 19:00:00 34.4 10 Oeste 25 Oeste 0 -- -- 9
2019-07-31 18:00:00 34.2 15 Sudoeste 29 Sudoeste 0 -- -- 10
2019-07-31 17:00:00 34.4 12 Sudoeste 28 Sudoeste 0 -- -- 9
2019-07-31 16:00:00 34.5 14 Sudoeste 31 Oeste 0 -- -- 9
2019-07-31 15:00:00 33.4 14 Sur 28 Sudoeste 0 -- -- 9
2019-07-31 14:00:00 32.8 14 Sudoeste 26 Sudoeste 0 -- -- 10
2019-07-31 13:00:00 31.4 11 Este 21 Este 0 -- -- 14
2019-07-31 12:00:00 29.5 8 Sudeste 30 Sudeste 0 -- -- 15
2019-07-31 11:00:00 27.5 15 Sudeste 30 Sudeste 0 -- -- 18
2019-07-31 10:00:00 21.5 3 Sudoeste 6 Noroeste 0 -- -- 30
2019-07-31 09:00:00 18.4 4 Oeste 9 Oeste 0 -- -- 36
2019-07-31 08:00:00 15.4 6 Oeste 12 Oeste 0 -- -- 39
2019-07-31 07:00:00 14.7 8 Oeste 13 Oeste 0 -- -- 36
2019-07-31 06:00:00 15.5 9 Oeste 11 Noroeste 0 -- -- 33
2019-07-31 05:00:00 16.1 7 Oeste 11 Oeste 0 -- -- 32
2019-07-31 04:00:00 17.4 9 Noroeste 12 Noroeste 0 -- -- 30
2019-07-31 03:00:00 18 8 Oeste 11 Noroeste 0 -- -- 29
2019-07-31 02:00:00 19.1 6 Oeste 9 Oeste 0 -- -- 25
2019-07-31 01:00:00 20.1 7 Oeste 10 Oeste 0 -- -- 23
2019-07-31 00:00:00 21.7 7 Oeste 16 Oeste 0 -- -- 19
2019-07-30 23:00:00 23.5 5 Norte 12 Noroeste 0 -- -- 17
2019-07-30 22:00:00 25.8 8 Noroeste 17 Noroeste 0 -- -- 13
2019-07-30 21:00:00 29 12 Noroeste 24 Noroeste 0 -- -- 12
2019-07-30 20:00:00 30.4 12 Noroeste 29 Oeste 0 -- -- 12
2019-07-30 19:00:00 31.2 14 Norte 30 Noroeste 0 -- -- 12
2019-07-30 18:00:00 31.5 14 Noroeste 29 Noroeste 0 -- -- 12
2019-07-30 17:00:00 31.4 12 Norte 23 Norte 0 -- -- 10
2019-07-30 16:00:00 30.3 11 Norte 30 Nordeste 0 -- -- 12
2019-07-30 15:00:00 29.4 12 Norte 28 Norte 0 -- -- 16
2019-07-30 14:00:00 27.6 9 Noroeste 26 Norte 0 -- -- 19
2019-07-30 13:00:00 26.2 11 Noroeste 23 Noroeste 0 -- -- 22
2019-07-30 12:00:00 24 14 Norte 26 Norte 0 -- -- 27
2019-07-30 11:00:00 21.8 14 Norte 32 Noroeste 0 -- -- 31
2019-07-30 10:00:00 19.4 18 Noroeste 30 Noroeste 0 -- -- 37
2019-07-30 09:00:00 15.8 10 Noroeste 18 Noroeste 0 -- -- 51
2019-07-30 08:00:00 12.9 10 Noroeste 22 Noroeste 0 -- -- 68
2019-07-30 07:00:00 12.9 14 Noroeste 24 Oeste 0 -- -- 69
2019-07-30 06:00:00 13.6 12 Noroeste 23 Oeste 0 -- -- 64
2019-07-30 05:00:00 14.3 12 Noroeste 23 Noroeste 0 -- -- 59
2019-07-30 04:00:00 15.4 13 Noroeste 24 Noroeste 0 -- -- 54
2019-07-30 03:00:00 16.7 15 Noroeste 26 Noroeste 0 -- -- 48
2019-07-30 02:00:00 17.9 15 Noroeste 22 Noroeste 0 -- -- 41
2019-07-30 01:00:00 19.2 13 Noroeste 23 Noroeste 0 -- -- 38
2019-07-30 00:00:00 21 14 Noroeste 36 Noroeste 0 -- -- 36
2019-07-29 23:00:00 22.8 19 Noroeste 37 Oeste 0 -- -- 33
2019-07-29 22:00:00 24.9 20 Noroeste 36 Noroeste 0 -- -- 27
2019-07-29 21:00:00 28 20 Noroeste 31 Noroeste 0 -- -- 20
2019-07-29 20:00:00 30 17 Noroeste 31 Oeste 0 -- -- 15
2019-07-29 19:00:00 30.7 18 Noroeste 37 Oeste 0 -- -- 12
2019-07-29 18:00:00 31.5 16 Noroeste 31 Oeste 0 -- -- 17
2019-07-29 17:00:00 31.5 15 Oeste 33 Sudoeste 0 -- -- 17
2019-07-29 16:00:00 30.8 17 Oeste 30 Oeste 0 -- -- 19
2019-07-29 15:00:00 29.9 15 Oeste 29 Oeste 0 -- -- 27
2019-07-29 14:00:00 28.5 8 Oeste 28 Oeste 0 -- -- 26
2019-07-29 13:00:00 26.7 5 Noroeste 21 Noroeste 0 -- -- 26
2019-07-29 12:00:00 24.6 11 Oeste 22 Oeste 0 -- -- 29
2019-07-29 11:00:00 22.2 12 Oeste 22 Oeste 0 -- -- 32
2019-07-29 10:00:00 20.2 10 Noroeste 20 Noroeste 0 -- -- 37
2019-07-29 09:00:00 17.8 6 Noroeste 11 Noroeste 0 -- -- 48
2019-07-29 08:00:00 14.4 3 Oeste 8 Sudoeste 0 -- -- 73
2019-07-29 07:00:00 14.4 6 Sudoeste 14 Sudoeste 0 -- -- 74
2019-07-29 06:00:00 15.7 9 Sudoeste 13 Sudoeste 0 -- -- 70
2019-07-29 05:00:00 17.1 6 Noroeste 10 Noroeste 0 -- -- 60
2019-07-29 04:00:00 18.7 7 Noroeste 13 Noroeste 0 -- -- 55
2019-07-29 03:00:00 20.1 5 Oeste 13 Noroeste 0 -- -- 51
2019-07-29 02:00:00 21.6 9 Noroeste 15 Noroeste 0 -- -- 46
2019-07-29 01:00:00 23.2 8 Noroeste 19 Oeste 0 -- -- 42
2019-07-29 00:00:00 24.3 10 Noroeste 18 Oeste 0 -- -- 36
2019-07-28 23:00:00 25.4 7 Sudoeste 14 Sudoeste 0 -- -- 34
2019-07-28 22:00:00 26.9 9 Sudoeste 25 Sudoeste 0 -- -- 31
2019-07-28 21:00:00 29 14 Sudoeste 27 Sur 0 -- -- 28
2019-07-28 20:00:00 30.9 6 Noroeste 20 Oeste 0 -- -- 23
2019-07-28 19:00:00 30.9 5 Oeste 18 Noroeste 0 -- -- 23
2019-07-28 18:00:00 31 13 Sudoeste 24 Sudoeste 0 -- -- 24
2019-07-28 17:00:00 30.7 6 Nordeste 17 Oeste 0 -- -- 25
2019-07-28 16:00:00 30.4 10 Sudoeste 23 Sudoeste 0 -- -- 25
2019-07-28 15:00:00 29 11 Oeste 21 Sudoeste 0 -- -- 34
2019-07-28 14:00:00 27.8 7 Oeste 21 Sudoeste 0 -- -- 40
2019-07-28 13:00:00 26.3 10 Oeste 20 Oeste 0 -- -- 45
2019-07-28 12:00:00 24.8 12 Sudoeste 19 Sudeste 0 -- -- 52
2019-07-28 11:00:00 24.3 10 Sudeste 17 Este 0 -- -- 54
2019-07-28 10:00:00 22 3 Sudeste 9 Noroeste 0 -- -- 62
2019-07-28 09:00:00 18.8 5 Noroeste 8 Noroeste 0 -- -- 73
2019-07-28 08:00:00 16.3 3 Sudoeste 6 Sudoeste 0 -- -- 81
2019-07-28 07:00:00 15.5 5 Noroeste 5 Noroeste 0 -- -- 82
2019-07-28 06:00:00 15.8 4 Noroeste 6 Oeste 0 -- -- 80
2019-07-28 05:00:00 16.5 4 Oeste 9 Oeste 0 -- -- 76
2019-07-28 04:00:00 16.8 5 Oeste 9 Oeste 0 -- -- 75
2019-07-28 03:00:00 17.5 7 Oeste 9 Noroeste 0 -- -- 70
2019-07-28 02:00:00 18.2 6 Oeste 13 Oeste 0 -- -- 66
2019-07-28 01:00:00 19.2 6 Oeste 10 Oeste 0 -- -- 61
2019-07-28 00:00:00 19.9 6 Oeste 12 Oeste 0 -- -- 60
2019-07-27 23:00:00 21.1 9 Oeste 18 Oeste 0 -- -- 56
2019-07-26 12:00:00 -- -- -- -- -- -- -- -- --
2019-07-26 11:00:00 -- -- -- -- -- -- -- -- --
2019-07-26 10:00:00 -- -- -- -- -- -- -- -- --
2019-07-26 09:00:00 -- -- -- -- -- -- -- -- --
2019-07-26 08:00:00 15.2 6 Oeste 10 Oeste 0 -- -- 85
2019-07-26 07:00:00 15.7 4 Oeste 13 Sudoeste 0 -- -- 83
2019-07-26 06:00:00 17 3 Sudoeste 13 Oeste 0 -- -- 77
2019-07-26 05:00:00 18.4 7 Sudoeste 17 Sudoeste 0 -- -- 73
2019-07-26 04:00:00 20.6 6 Oeste 11 Oeste 0 -- -- 69
2019-07-26 03:00:00 21.7 6 Oeste 20 Oeste 0 -- -- 63
2019-07-26 02:00:00 22.1 10 Oeste 26 Oeste 0 -- -- 61
2019-07-26 01:00:00 22.6 16 Noroeste 33 Noroeste 0 -- -- 59
2019-07-26 00:00:00 23.5 16 Noroeste 39 Noroeste 0 -- -- 58